Los Molinos, California
Current Conditions -  °F | °C
As of 12:54 PM on Sunday 23 Nov 2014 (Local Time) from KRBL Reporting Station
Few Clouds Few Clouds  
Wind Chill: 58°   Ceiling: Unl
Heat Index: 58°   Visibility: 10mi
Dew Point: 39°   Wind: 10mph
Humidity: 49%   Direction: 350°N
Pressure: 30.32"   Gusts: NA
Location:  40.02°N, 122.1°W
Report Text: KRBL 232054Z AUTO 35009KT 10SM FEW120 14/04 A3032 RMK AO2 SLP266 T01440039 56021
Loading
Personal Weather Stations






























Interactive Weather Map New forecast layout! Learn more

10-Day Weather Forecast

Advertisements
Track Severe Weather on mobile